Time;durP1;ratioP1;P1;durP2;ratioP2;P2;SDS_P1;SDS_P2;PMS_P1;PMS_P2;Temp;Humidity;BMP_temperature;BMP_pressure;BME280_temperature;BME280_humidity;BME280_pressure;Samples;Min_cycle;Max_cycle;Signal;HPM_P1;HPM_P2
2021/08/07 00:01:20;;;;;;;6.73;1.70;;;16.40;99.90;;;;;;5042690;28;20240;-94
2021/08/07 00:03:47;;;;;;;5.93;2.23;;;16.40;99.90;;;;;;5023551;28;20217;-96
2021/08/07 00:06:13;;;;;;;11.23;2.30;;;16.40;99.90;;;;;;5024832;28;20589;-94
2021/08/07 00:08:39;;;;;;;16.73;2.40;;;16.40;99.90;;;;;;5042371;28;20230;-96
2021/08/07 00:11:05;;;;;;;5.67;1.60;;;16.40;99.90;;;;;;5023479;28;20213;-95
2021/08/07 00:13:31;;;;;;;12.47;2.30;;;16.40;99.90;;;;;;5024314;28;21431;-95
2021/08/07 00:15:59;;;;;;;6.00;2.20;;;16.40;99.90;;;;;;5042187;28;20218;-95
2021/08/07 00:18:25;;;;;;;7.00;1.10;;;16.50;99.90;;;;;;5024728;28;20891;-94
2021/08/07 00:20:56;;;;;;;3.20;1.50;;;16.50;99.90;;;;;;5016825;28;20232;-95
2021/08/07 00:23:25;;;;;;;11.93;2.10;;;16.50;99.90;;;;;;5026795;28;21003;-96
2021/08/07 00:25:54;;;;;;;1.77;1.50;;;16.50;99.90;;;;;;5024813;28;20225;-95
2021/08/07 00:28:24;;;;;;;3.63;1.30;;;16.50;99.90;;;;;;5017025;28;20226;-95
2021/08/07 00:30:50;;;;;;;7.30;1.73;;;16.50;99.90;;;;;;5025051;28;20221;-95
2021/08/07 00:33:16;;;;;;;5.90;1.57;;;16.50;99.90;;;;;;5008168;28;20230;-95
2021/08/07 00:35:41;;;;;;;4.90;1.80;;;16.50;99.90;;;;;;5020555;28;20226;-95
2021/08/07 00:38:07;;;;;;;3.63;1.50;;;16.50;99.90;;;;;;5041117;28;20206;-96
2021/08/07 00:40:41;;;;;;;3.10;1.60;;;16.60;99.90;;;;;;5025886;28;20166;-96
2021/08/07 00:43:10;;;;;;;2.40;1.60;;;16.60;99.90;;;;;;5030056;28;20211;-96
2021/08/07 00:45:40;;;;;;;8.17;2.30;;;16.60;99.90;;;;;;5023777;28;20229;-96
2021/08/07 00:48:15;;;;;;;4.03;1.70;;;16.70;99.90;;;;;;5044038;28;20221;-96
2021/08/07 00:50:45;;;;;;;1.57;1.10;;;16.80;99.90;;;;;;5041321;28;20306;-95
2021/08/07 00:53:14;;;;;;;5.13;1.83;;;16.80;99.90;;;;;;5042879;28;20223;-95
2021/08/07 00:55:41;;;;;;;8.27;1.90;;;16.80;99.90;;;;;;5041993;28;20591;-95
2021/08/07 00:58:09;;;;;;;5.53;1.97;;;16.80;99.90;;;;;;5025071;28;20221;-95
2021/08/07 01:00:35;;;;;;;1.87;1.50;;;16.80;99.90;;;;;;5023477;28;20228;-95
2021/08/07 01:03:32;;;;;;;11.17;2.13;;;16.80;99.90;;;;;;5025868;28;20213;-95
2021/08/07 01:06:19;;;;;;;3.07;1.90;;;16.80;99.90;;;;;;5032039;28;21460;-96
2021/08/07 01:09:11;;;;;;;1.87;1.13;;;16.90;99.90;;;;;;5016610;28;20236;-94
2021/08/07 01:11:57;;;;;;;5.43;1.80;;;16.90;99.90;;;;;;5018960;28;20229;-95
2021/08/07 01:14:32;;;;;;;3.20;1.40;;;16.90;99.90;;;;;;5022116;28;20304;-93
2021/08/07 01:16:58;;;;;;;6.13;1.90;;;16.90;99.90;;;;;;5021289;28;20240;-94
2021/08/07 01:19:28;;;;;;;3.33;2.10;;;16.90;99.90;;;;;;5005541;28;20222;-96
2021/08/07 01:22:00;;;;;;;3.47;2.03;;;16.90;99.90;;;;;;5021831;28;20226;-96
2021/08/07 01:24:39;;;;;;;3.73;1.73;;;17.00;99.90;;;;;;5021176;28;20296;-95
2021/08/07 01:27:30;;;;;;;2.83;1.20;;;16.90;99.90;;;;;;5019953;28;20218;-96
2021/08/07 01:29:58;;;;;;;10.60;1.53;;;16.90;99.90;;;;;;5019786;28;20214;-95
2021/08/07 01:32:31;;;;;;;2.13;1.60;;;16.90;99.90;;;;;;5004351;28;20597;-95
2021/08/07 01:34:59;;;;;;;1.87;1.23;;;16.90;99.90;;;;;;5022662;28;20274;-96
2021/08/07 01:37:25;;;;;;;1.87;1.77;;;16.90;99.90;;;;;;5022386;28;20577;-95
2021/08/07 01:39:58;;;;;;;3.40;1.10;;;16.80;99.90;;;;;;5005902;28;20226;-96
2021/08/07 01:42:29;;;;;;;5.70;1.53;;;16.70;99.90;;;;;;5022635;28;20282;-95
2021/08/07 01:45:01;;;;;;;3.80;1.60;;;16.70;99.90;;;;;;5013731;28;20749;-96
2021/08/07 01:47:53;;;;;;;2.57;1.60;;;16.70;99.90;;;;;;5022729;28;20242;-96
2021/08/07 01:50:30;;;;;;;6.30;1.50;;;16.60;99.90;;;;;;5031080;28;20322;-96
2021/08/07 01:53:03;;;;;;;2.63;1.53;;;16.60;99.90;;;;;;5016287;28;21190;-95
2021/08/07 01:55:53;;;;;;;2.93;2.00;;;16.60;99.90;;;;;;5027876;28;20189;-94
2021/08/07 01:58:46;;;;;;;3.50;1.03;;;16.60;99.90;;;;;;5027916;28;20230;-96
2021/08/07 02:01:16;;;;;;;5.00;1.37;;;16.60;99.90;;;;;;5025341;28;20226;-95
2021/08/07 02:03:46;;;;;;;3.40;1.73;;;16.60;99.90;;;;;;5018354;28;20253;-96
2021/08/07 02:06:13;;;;;;;6.70;1.50;;;16.60;99.90;;;;;;5008105;28;20222;-95
2021/08/07 02:08:41;;;;;;;5.00;2.53;;;16.60;99.90;;;;;;5001067;28;20304;-95
2021/08/07 02:11:09;;;;;;;1.70;1.60;;;16.60;99.90;;;;;;4998903;28;20199;-96
2021/08/07 02:13:39;;;;;;;3.00;1.30;;;16.60;99.90;;;;;;5005867;28;20663;-96
2021/08/07 02:16:06;;;;;;;3.13;1.50;;;16.60;99.90;;;;;;5004816;28;20216;-96
2021/08/07 02:18:38;;;;;;;5.23;1.23;;;16.60;99.90;;;;;;5003314;28;20227;-95
2021/08/07 02:21:07;;;;;;;4.03;1.70;;;16.50;99.90;;;;;;5002898;28;20265;-93
2021/08/07 02:23:40;;;;;;;1.90;1.80;;;16.50;99.90;;;;;;5013353;28;20401;-96
2021/08/07 02:26:10;;;;;;;2.80;1.33;;;16.50;99.90;;;;;;5003331;28;20186;-95
2021/08/07 02:28:36;;;;;;;2.70;1.57;;;16.50;99.90;;;;;;5017178;28;20690;-95
2021/08/07 02:31:03;;;;;;;4.10;1.93;;;16.50;99.90;;;;;;5004372;28;20219;-96
2021/08/07 02:33:30;;;;;;;3.60;1.37;;;16.50;99.90;;;;;;5005814;28;20235;-96
2021/08/07 02:35:58;;;;;;;2.43;1.40;;;16.50;99.90;;;;;;5019810;28;21215;-95
2021/08/07 02:38:27;;;;;;;2.67;1.80;;;16.40;99.90;;;;;;5010707;28;20290;-96
2021/08/07 02:40:55;;;;;;;1.60;1.37;;;16.30;99.90;;;;;;4995973;28;20659;-95
2021/08/07 02:43:24;;;;;;;2.00;1.13;;;16.20;99.90;;;;;;4995616;28;20642;-96
2021/08/07 02:45:51;;;;;;;5.43;1.87;;;16.20;99.90;;;;;;5016469;28;20219;-94
2021/08/07 02:48:17;;;;;;;6.60;1.33;;;16.20;99.90;;;;;;5002317;28;20877;-96
2021/08/07 02:50:46;;;;;;;4.67;1.47;;;16.10;99.90;;;;;;4986159;28;20245;-96
2021/08/07 02:53:16;;;;;;;1.90;1.10;;;16.10;99.90;;;;;;5011716;28;20191;-95
2021/08/07 02:55:45;;;;;;;2.90;1.43;;;16.00;99.90;;;;;;4983183;28;20203;-96
2021/08/07 02:58:13;;;;;;;6.03;1.93;;;16.00;99.90;;;;;;4996263;28;20269;-95
2021/08/07 03:00:39;;;;;;;4.27;1.70;;;15.90;99.90;;;;;;5003013;28;20222;-94
2021/08/07 03:03:06;;;;;;;4.63;1.60;;;15.90;99.90;;;;;;5001091;28;20703;-95
2021/08/07 03:05:32;;;;;;;4.97;2.10;;;15.90;99.90;;;;;;5011938;28;20215;-96
2021/08/07 03:08:01;;;;;;;2.67;1.73;;;15.90;99.90;;;;;;4982549;28;20258;-96
2021/08/07 03:10:28;;;;;;;1.70;1.17;;;15.80;99.90;;;;;;5015386;28;20203;-96
2021/08/07 03:12:54;;;;;;;3.10;1.77;;;15.80;99.90;;;;;;5014092;28;20224;-95
2021/08/07 03:15:24;;;;;;;2.70;1.53;;;15.80;99.90;;;;;;5003841;28;20227;-95
2021/08/07 03:17:51;;;;;;;1.90;1.33;;;15.80;99.90;;;;;;5004551;28;20230;-96
2021/08/07 03:20:30;;;;;;;2.53;2.33;;;15.70;99.90;;;;;;5002090;28;20229;-96
2021/08/07 03:22:58;;;;;;;4.23;2.33;;;15.70;99.90;;;;;;4998987;28;20628;-95
2021/08/07 03:25:34;;;;;;;3.53;1.70;;;15.70;99.90;;;;;;4999730;28;20183;-96
2021/08/07 03:28:00;;;;;;;3.20;1.83;;;15.60;99.90;;;;;;5000405;28;20291;-93
2021/08/07 03:30:26;;;;;;;2.13;1.83;;;15.60;99.90;;;;;;5000627;28;20220;-94
2021/08/07 03:32:52;;;;;;;2.23;1.83;;;15.60;99.90;;;;;;5002083;28;20534;-94
2021/08/07 03:35:18;;;;;;;3.17;1.97;;;15.50;99.90;;;;;;5015508;28;20230;-95
2021/08/07 03:37:44;;;;;;;3.60;2.37;;;15.50;99.90;;;;;;4985446;28;20207;-95
2021/08/07 03:40:10;;;;;;;4.90;2.10;;;15.50;99.90;;;;;;4985820;28;20734;-95
2021/08/07 03:42:37;;;;;;;4.23;2.10;;;15.40;99.90;;;;;;5013169;28;20902;-95
2021/08/07 03:45:05;;;;;;;4.63;2.27;;;15.40;99.90;;;;;;5017177;28;20230;-95
2021/08/07 03:47:52;;;;;;;6.83;2.10;;;15.30;99.90;;;;;;5002807;28;20238;-95
2021/08/07 03:50:21;;;;;;;4.47;1.73;;;15.30;99.90;;;;;;5001974;28;20220;-94
2021/08/07 03:52:49;;;;;;;2.50;1.80;;;15.30;99.90;;;;;;5012970;28;20183;-95
2021/08/07 03:55:18;;;;;;;4.63;2.50;;;15.20;99.90;;;;;;4995496;28;20218;-95
2021/08/07 03:57:54;;;;;;;1.73;1.63;;;15.20;99.90;;;;;;4996777;28;20218;-96
2021/08/07 04:00:24;;;;;;;5.77;2.37;;;15.20;99.90;;;;;;5011492;28;20215;-96
2021/08/07 04:02:50;;;;;;;4.17;2.40;;;15.20;99.90;;;;;;5012165;28;21302;-96
2021/08/07 04:05:19;;;;;;;3.30;2.47;;;15.20;99.90;;;;;;4996197;28;21344;-96
2021/08/07 04:07:45;;;;;;;5.20;2.13;;;15.20;99.90;;;;;;5026691;28;20236;-95
2021/08/07 04:10:12;;;;;;;4.07;2.70;;;15.20;99.90;;;;;;5004009;28;20237;-96
2021/08/07 04:12:38;;;;;;;4.77;2.30;;;15.10;99.90;;;;;;5026364;28;20867;-96
2021/08/07 04:15:07;;;;;;;2.93;1.97;;;15.10;99.90;;;;;;5017930;28;20233;-95
2021/08/07 04:17:38;;;;;;;5.23;2.23;;;15.20;99.90;;;;;;5028548;28;20276;-93
2021/08/07 04:20:07;;;;;;;4.03;1.90;;;15.20;99.90;;;;;;5015984;28;20278;-94
2021/08/07 04:22:42;;;;;;;2.87;2.00;;;15.20;99.90;;;;;;5018662;28;20193;-96
2021/08/07 04:25:11;;;;;;;3.33;2.20;;;15.20;99.90;;;;;;5018589;28;20218;-95
2021/08/07 04:27:41;;;;;;;4.60;2.00;;;15.20;99.90;;;;;;5019781;28;20740;-96
2021/08/07 04:30:10;;;;;;;4.93;2.47;;;15.30;99.90;;;;;;5018762;28;20284;-94
2021/08/07 04:32:46;;;;;;;10.60;2.53;;;15.30;99.90;;;;;;5018437;28;20224;-94
2021/08/07 04:35:12;;;;;;;1.60;1.50;;;15.30;99.90;;;;;;5021849;28;20201;-95
2021/08/07 04:37:57;;;;;;;3.73;1.80;;;15.30;99.90;;;;;;5029675;28;20219;-96
2021/08/07 04:40:25;;;;;;;5.40;1.80;;;15.40;99.90;;;;;;4995012;28;20223;-96
2021/08/07 04:42:53;;;;;;;3.27;1.90;;;15.40;99.90;;;;;;5025493;28;20369;-93
2021/08/07 04:45:24;;;;;;;3.80;2.23;;;15.50;99.90;;;;;;5019601;28;20591;-96
2021/08/07 04:48:03;;;;;;;5.27;1.80;;;15.50;99.90;;;;;;5015482;28;20222;-95
2021/08/07 04:50:31;;;;;;;6.07;2.20;;;15.50;99.90;;;;;;5014652;28;21047;-95
2021/08/07 04:52:59;;;;;;;10.47;2.43;;;15.50;99.90;;;;;;5028307;28;20187;-95
2021/08/07 04:55:27;;;;;;;2.57;1.77;;;15.60;99.90;;;;;;5024263;28;20843;-94
2021/08/07 04:57:53;;;;;;;4.53;2.20;;;15.60;99.90;;;;;;5010743;28;20705;-95
2021/08/07 05:00:21;;;;;;;3.23;1.60;;;15.70;99.90;;;;;;5016699;28;20222;-94
2021/08/07 05:02:47;;;;;;;4.37;2.17;;;15.80;99.90;;;;;;5008400;28;20218;-94
2021/08/07 05:05:14;;;;;;;5.90;2.90;;;15.80;99.90;;;;;;5011170;28;20194;-95
2021/08/07 05:07:52;;;;;;;6.67;2.00;;;15.90;99.90;;;;;;5019730;28;20238;-95
2021/08/07 05:10:18;;;;;;;4.80;1.73;;;15.90;99.90;;;;;;5024589;28;20224;-95
2021/08/07 05:12:44;;;;;;;6.30;1.80;;;16.00;99.90;;;;;;5025157;28;20218;-95
2021/08/07 05:15:12;;;;;;;1.77;1.40;;;16.10;99.90;;;;;;5010624;28;21158;-92
2021/08/07 05:17:38;;;;;;;3.63;1.60;;;16.20;99.90;;;;;;5018738;28;20261;-95
2021/08/07 05:20:05;;;;;;;4.73;2.00;;;16.30;99.90;;;;;;5039196;28;20277;-94
2021/08/07 05:22:31;;;;;;;2.67;2.43;;;16.30;99.90;;;;;;5022752;28;20223;-95
2021/08/07 05:24:57;;;;;;;3.20;1.90;;;16.40;99.90;;;;;;5039492;28;20225;-94
2021/08/07 05:27:23;;;;;;;6.60;1.87;;;16.90;99.90;;;;;;5024848;28;20218;-93
2021/08/07 05:29:49;;;;;;;4.10;1.73;;;17.80;99.90;;;;;;5026481;28;20708;-95
2021/08/07 05:32:14;;;;;;;2.97;1.53;;;18.20;99.90;;;;;;5024460;28;20260;-94
2021/08/07 05:34:48;;;;;;;2.30;1.27;;;18.10;99.90;;;;;;5025663;28;20236;-95
2021/08/07 05:37:16;;;;;;;5.17;2.27;;;18.70;99.90;;;;;;5044335;28;20701;-92
2021/08/07 05:39:44;;;;;;;7.63;2.83;;;19.50;99.90;;;;;;5044030;28;20275;-95
2021/08/07 05:42:12;;;;;;;2.40;1.27;;;20.70;99.90;;;;;;5045214;28;20218;-92
2021/08/07 05:44:38;;;;;;;6.40;1.97;;;21.40;99.90;;;;;;5028659;28;20309;-93
2021/08/07 05:47:08;;;;;;;6.43;1.97;;;22.00;99.90;;;;;;5018739;28;20281;-96
2021/08/07 05:49:34;;;;;;;3.47;1.63;;;23.50;99.90;;;;;;5022371;28;20659;-95
2021/08/07 05:52:03;;;;;;;5.17;1.97;;;24.00;99.90;;;;;;5027669;28;20300;-95
2021/08/07 05:54:31;;;;;;;14.87;1.60;;;21.90;99.90;;;;;;5017690;28;20245;-92
2021/08/07 05:56:59;;;;;;;4.07;1.57;;;20.40;99.90;;;;;;5028227;28;20222;-95
2021/08/07 05:59:27;;;;;;;2.83;1.40;;;19.30;99.90;;;;;;5027338;28;20287;-95
2021/08/07 06:01:53;;;;;;;3.93;2.53;;;18.60;99.90;;;;;;5045653;28;20628;-94
2021/08/07 06:04:21;;;;;;;3.57;1.80;;;18.60;99.90;;;;;;5024275;28;20287;-94
2021/08/07 06:06:47;;;;;;;3.20;1.70;;;19.50;99.90;;;;;;5044682;28;20218;-93
2021/08/07 06:09:13;;;;;;;2.57;1.97;;;21.80;99.90;;;;;;5024041;28;20271;-91
2021/08/07 06:11:39;;;;;;;3.63;2.60;;;23.00;99.90;;;;;;5042807;28;20223;-95
2021/08/07 06:14:05;;;;;;;3.33;1.73;;;24.10;99.90;;;;;;5040832;28;20214;-94
2021/08/07 06:16:32;;;;;;;12.90;2.30;;;24.60;99.90;;;;;;5010703;28;20277;-95
2021/08/07 06:19:00;;;;;;;6.37;1.97;;;24.80;99.90;;;;;;5044455;28;20729;-95
2021/08/07 06:21:26;;;;;;;5.67;1.80;;;24.70;99.90;;;;;;5025088;28;20214;-93
2021/08/07 06:23:52;;;;;;;5.60;1.97;;;25.60;99.90;;;;;;5035809;28;20561;-94
2021/08/07 06:26:18;;;;;;;5.83;2.37;;;25.00;99.90;;;;;;5025837;28;20234;-93
2021/08/07 06:28:43;;;;;;;2.63;1.97;;;24.00;99.90;;;;;;5028504;28;20262;-95
2021/08/07 06:31:09;;;;;;;4.77;2.17;;;23.30;99.90;;;;;;5034123;28;20222;-92
2021/08/07 06:33:36;;;;;;;3.93;1.80;;;23.80;99.90;;;;;;5025271;28;20309;-94
2021/08/07 06:36:06;;;;;;;4.57;2.33;;;25.50;99.90;;;;;;5023709;28;21226;-88
2021/08/07 06:38:31;;;;;;;4.32;1.90;;;26.00;99.90;;;;;;5017050;28;20229;-86
2021/08/07 06:40:57;;;;;;;2.40;1.75;;;26.10;99.90;;;;;;5017450;28;20228;-84
2021/08/07 06:43:23;;;;;;;6.00;2.13;;;26.40;99.90;;;;;;5018260;28;21167;-86
2021/08/07 06:45:49;;;;;;;2.78;1.60;;;24.90;99.90;;;;;;5015150;28;21129;-88
2021/08/07 06:48:15;;;;;;;3.00;2.15;;;24.40;99.90;;;;;;5000678;28;20225;-87
2021/08/07 06:50:41;;;;;;;5.95;1.77;;;24.90;99.90;;;;;;5001651;28;20236;-88
2021/08/07 06:53:06;;;;;;;4.78;1.77;;;25.90;99.90;;;;;;5002977;28;20710;-90
2021/08/07 06:55:32;;;;;;;6.20;2.22;;;25.90;99.90;;;;;;5001010;28;20940;-88
2021/08/07 06:57:58;;;;;;;3.35;1.60;;;26.50;99.90;;;;;;5017660;28;20224;-88
2021/08/07 07:00:23;;;;;;;7.65;2.17;;;26.30;99.90;;;;;;5001800;28;20240;-87
2021/08/07 07:02:49;;;;;;;3.13;1.35;;;26.10;99.90;;;;;;5002027;28;20629;-88
2021/08/07 07:05:15;;;;;;;2.60;1.45;;;24.90;99.90;;;;;;5002104;28;20705;-88
2021/08/07 07:07:41;;;;;;;1.75;1.23;;;26.10;99.90;;;;;;5014691;28;20737;-86
2021/08/07 07:10:12;;;;;;;5.90;1.73;;;26.90;99.90;;;;;;5000142;28;20263;-90
2021/08/07 07:12:38;;;;;;;2.90;1.50;;;25.90;99.90;;;;;;5017868;28;20221;-88
2021/08/07 07:15:05;;;;;;;6.20;1.55;;;26.60;99.90;;;;;;5018196;28;20214;-88
2021/08/07 07:17:31;;;;;;;2.20;1.30;;;26.60;99.90;;;;;;5033904;28;20608;-89
2021/08/07 07:19:57;;;;;;;2.83;1.73;;;25.90;99.90;;;;;;5015892;28;20193;-90
2021/08/07 07:22:23;;;;;;;5.45;1.95;;;24.60;99.90;;;;;;4988817;28;20195;-93
2021/08/07 07:24:49;;;;;;;6.05;1.35;;;23.50;99.90;;;;;;5038131;28;20218;-88
2021/08/07 07:27:15;;;;;;;5.22;1.45;;;22.60;99.90;;;;;;5021712;28;20222;-89
2021/08/07 07:29:41;;;;;;;3.35;1.58;;;23.40;99.90;;;;;;5018181;28;20222;-90
2021/08/07 07:32:09;;;;;;;2.55;1.60;;;25.60;99.90;;;;;;5019356;28;20189;-90
2021/08/07 07:34:38;;;;;;;2.42;1.50;;;26.50;99.90;;;;;;5018679;28;20221;-90
2021/08/07 07:37:06;;;;;;;6.55;1.52;;;26.10;99.90;;;;;;5016883;28;20213;-91
2021/08/07 07:39:32;;;;;;;3.03;1.27;;;26.80;99.90;;;;;;5038591;28;20236;-91
2021/08/07 07:41:58;;;;;;;2.63;1.70;;;26.70;99.90;;;;;;5037285;28;20222;-89
2021/08/07 07:44:24;;;;;;;4.93;2.05;;;26.30;99.90;;;;;;5018184;28;20224;-89
2021/08/07 07:46:49;;;;;;;3.80;1.67;;;25.80;99.90;;;;;;5033074;28;20195;-88
2021/08/07 07:49:15;;;;;;;6.95;2.65;;;24.30;99.90;;;;;;5005571;28;20236;-92
2021/08/07 07:51:42;;;;;;;6.72;1.70;;;23.70;99.90;;;;;;5020144;28;20213;-90
2021/08/07 07:54:07;;;;;;;6.57;1.80;;;23.40;99.90;;;;;;5018223;28;20222;-90
2021/08/07 07:56:33;;;;;;;3.70;1.85;;;24.70;99.90;;;;;;5018954;28;20651;-89
2021/08/07 07:58:59;;;;;;;6.05;1.90;;;26.00;99.90;;;;;;5018287;28;20218;-90
2021/08/07 08:01:25;;;;;;;8.32;2.05;;;27.20;99.90;;;;;;5019758;28;20205;-87
2021/08/07 08:03:51;;;;;;;4.40;2.05;;;26.60;99.90;;;;;;5016644;28;20280;-86
2021/08/07 08:06:16;;;;;;;5.90;1.60;;;27.20;99.90;;;;;;5018392;28;21342;-90
2021/08/07 08:08:42;;;;;;;2.25;1.33;;;28.00;99.90;;;;;;5015830;28;20234;-91
2021/08/07 08:11:08;;;;;;;3.50;2.42;;;27.50;99.90;;;;;;5015238;28;21162;-90
2021/08/07 08:13:34;;;;;;;2.33;1.23;;;26.80;99.90;;;;;;5000747;28;20194;-91
2021/08/07 08:16:00;;;;;;;2.30;1.40;;;26.90;99.90;;;;;;5015933;28;20218;-89
2021/08/07 08:18:25;;;;;;;3.05;1.98;;;26.50;99.90;;;;;;5017726;28;20365;-92
2021/08/07 08:20:51;;;;;;;5.22;2.10;;;25.90;99.90;;;;;;5015511;28;20272;-89
2021/08/07 08:23:17;;;;;;;7.35;2.17;;;26.80;99.90;;;;;;5015489;28;20690;-89
2021/08/07 08:25:43;;;;;;;2.97;1.52;;;26.50;99.90;;;;;;5013833;28;20195;-89
2021/08/07 08:28:09;;;;;;;7.82;1.88;;;27.30;99.90;;;;;;5013312;28;20229;-88
2021/08/07 08:30:35;;;;;;;4.32;2.20;;;27.60;99.90;;;;;;5010141;28;20333;-89
2021/08/07 08:33:01;;;;;;;5.57;1.60;;;27.40;99.90;;;;;;5013209;28;20317;-89
2021/08/07 08:35:26;;;;;;;3.00;1.95;;;27.20;99.90;;;;;;4994894;28;21272;-87
2021/08/07 08:37:52;;;;;;;3.60;1.73;;;26.90;99.90;;;;;;5011389;28;20229;-90
2021/08/07 08:40:21;;;;;;;2.92;1.67;;;27.20;99.90;;;;;;5013175;28;20261;-89
2021/08/07 08:42:47;;;;;;;4.07;2.20;;;26.10;99.90;;;;;;5012044;28;20222;-89
2021/08/07 08:45:13;;;;;;;2.85;1.63;;;26.50;99.90;;;;;;5012179;28;20214;-89
2021/08/07 08:47:47;;;;;;;3.33;1.48;;;27.70;99.90;;;;;;5011669;28;20225;-87
2021/08/07 08:50:15;;;;;;;3.17;1.67;;;26.80;99.90;;;;;;5002901;28;20228;-88
2021/08/07 08:52:42;;;;;;;3.70;1.80;;;26.50;99.90;;;;;;5021019;28;20250;-92
2021/08/07 08:55:10;;;;;;;5.05;1.80;;;25.80;99.90;;;;;;4997904;28;20215;-91
2021/08/07 08:57:37;;;;;;;5.53;1.67;;;25.20;99.90;;;;;;5013875;28;20222;-87
2021/08/07 09:00:05;;;;;;;4.15;2.00;;;24.10;99.90;;;;;;5012668;28;20273;-88
2021/08/07 09:02:31;;;;;;;4.43;2.10;;;23.40;99.90;;;;;;5016699;28;20731;-92
2021/08/07 09:04:57;;;;;;;3.95;2.42;;;23.10;99.90;;;;;;5024074;28;20212;-94
2021/08/07 09:07:23;;;;;;;3.45;2.10;;;22.70;99.90;;;;;;5012893;28;20194;-87
2021/08/07 09:09:54;;;;;;;6.60;2.10;;;22.40;99.90;;;;;;5019514;28;20238;-86
2021/08/07 09:12:51;;;;;;;3.35;2.40;;;23.90;99.90;;;;;;5019933;28;20288;-89
2021/08/07 09:15:29;;;;;;;2.17;1.95;;;24.00;99.90;;;;;;5020194;28;20257;-90
2021/08/07 09:18:10;;;;;;;4.07;1.60;;;24.40;99.90;;;;;;5021037;28;20226;-91
2021/08/07 09:20:37;;;;;;;8.32;2.05;;;25.80;99.90;;;;;;5018563;28;20283;-93
2021/08/07 09:23:03;;;;;;;2.72;2.08;;;26.70;99.90;;;;;;5018245;28;20201;-91
2021/08/07 09:25:37;;;;;;;3.92;1.90;;;26.20;99.90;;;;;;5001626;28;20199;-86
2021/08/07 09:28:04;;;;;;;3.88;1.80;;;25.40;99.90;;;;;;5012432;28;20221;-87
2021/08/07 09:30:34;;;;;;;2.05;1.85;;;25.30;99.90;;;;;;5019672;28;20222;-86
2021/08/07 09:33:09;;;;;;;1.98;1.70;;;24.30;99.90;;;;;;5011434;28;20308;-87
2021/08/07 09:35:46;;;;;;;4.15;1.92;;;23.60;99.90;;;;;;5018986;28;20213;-91
2021/08/07 09:38:20;;;;;;;2.17;1.98;;;23.70;99.90;;;;;;5020863;28;20649;-89
2021/08/07 09:40:59;;;;;;;2.05;1.85;;;24.60;99.90;;;;;;5019694;28;20190;-89
2021/08/07 09:43:42;;;;;;;3.60;2.40;;;24.40;99.90;;;;;;5018707;28;20218;-90
2021/08/07 09:46:12;;;;;;;3.78;1.80;;;23.90;99.90;;;;;;5015818;28;20414;-87
2021/08/07 09:48:49;;;;;;;3.58;2.22;;;23.10;99.90;;;;;;5016392;28;20245;-88
2021/08/07 09:51:23;;;;;;;3.20;2.40;;;23.20;99.90;;;;;;5015938;28;20229;-89
2021/08/07 09:54:15;;;;;;;2.22;1.80;;;22.70;99.90;;;;;;5019318;28;20222;-90
2021/08/07 09:56:57;;;;;;;2.58;2.38;;;23.20;99.90;;;;;;5009516;28;20214;-88
2021/08/07 09:59:26;;;;;;;3.88;2.25;;;23.90;99.90;;;;;;5019281;28;20237;-88
2021/08/07 10:01:54;;;;;;;3.28;1.90;;;23.90;99.90;;;;;;5021970;28;21289;-91
2021/08/07 10:04:21;;;;;;;3.22;1.92;;;23.20;99.90;;;;;;5016335;28;20230;-87
2021/08/07 10:06:48;;;;;;;2.72;1.55;;;23.10;99.90;;;;;;5035955;28;20215;-87
2021/08/07 10:09:29;;;;;;;1.52;1.42;;;22.80;99.90;;;;;;5019275;28;20565;-86
2021/08/07 10:12:21;;;;;;;2.05;1.88;;;23.50;99.90;;;;;;5010993;28;20218;-90
2021/08/07 10:14:48;;;;;;;7.40;1.48;;;23.70;99.90;;;;;;5013614;28;20224;-87
2021/08/07 10:17:18;;;;;;;2.38;1.45;;;23.80;99.90;;;;;;5017161;28;20221;-90
2021/08/07 10:19:46;;;;;;;3.97;1.80;;;23.40;99.90;;;;;;5008017;28;20268;-91
2021/08/07 10:22:14;;;;;;;1.73;1.33;;;23.50;99.90;;;;;;5002152;28;20215;-92
2021/08/07 10:24:42;;;;;;;3.00;1.17;;;24.20;99.90;;;;;;5000199;28;20218;-87
2021/08/07 10:27:08;;;;;;;3.08;1.10;;;24.60;99.90;;;;;;5018053;28;20275;-88
2021/08/07 10:29:39;;;;;;;3.15;1.40;;;24.90;99.90;;;;;;4999067;28;20688;-87
2021/08/07 10:32:06;;;;;;;2.65;1.02;;;25.40;99.90;;;;;;5014346;28;20183;-89
2021/08/07 10:34:36;;;;;;;5.18;1.30;;;24.70;99.90;;;;;;4999125;28;20191;-89
2021/08/07 10:37:03;;;;;;;7.45;1.48;;;24.80;99.90;;;;;;5015670;28;20281;-90
2021/08/07 10:39:30;;;;;;;1.75;1.02;;;25.30;99.90;;;;;;4995340;28;20229;-86
2021/08/07 10:42:04;;;;;;;2.25;1.40;;;25.00;99.90;;;;;;5018993;28;20222;-91
2021/08/07 10:44:35;;;;;;;1.45;1.17;;;25.20;99.90;;;;;;5014093;28;20210;-88
2021/08/07 10:47:01;;;;;;;1.88;1.13;;;25.40;99.90;;;;;;5021581;28;20192;-87
2021/08/07 10:49:41;;;;;;;3.78;1.45;;;25.90;99.90;;;;;;5000973;28;20213;-87
2021/08/07 10:52:22;;;;;;;3.88;1.48;;;25.70;99.90;;;;;;5004498;28;20297;-90
2021/08/07 10:54:57;;;;;;;4.07;1.35;;;25.80;99.90;;;;;;5014622;28;20214;-90
2021/08/07 10:57:44;;;;;;;4.38;1.33;;;25.90;99.90;;;;;;5015997;28;20214;-89
2021/08/07 11:00:16;;;;;;;5.20;1.30;;;26.10;99.90;;;;;;5015026;28;20230;-89
2021/08/07 11:02:42;;;;;;;1.27;1.10;;;25.70;99.90;;;;;;5013832;28;20222;-88
2021/08/07 11:05:09;;;;;;;2.00;1.20;;;25.10;99.90;;;;;;4994029;28;20199;-92
2021/08/07 11:07:36;;;;;;;1.83;0.82;;;24.40;99.90;;;;;;4985025;28;20186;-96
2021/08/07 11:10:10;;;;;;;3.47;1.02;;;25.00;99.90;;;;;;5017572;28;20221;-94
2021/08/07 11:12:38;;;;;;;4.63;1.00;;;25.90;99.90;;;;;;5015138;28;20312;-93
2021/08/07 11:15:09;;;;;;;4.07;1.20;;;24.70;99.90;;;;;;4999108;28;20306;-89
2021/08/07 11:17:53;;;;;;;1.88;0.73;;;24.30;99.90;;;;;;5016808;28;20228;-90
2021/08/07 11:20:37;;;;;;;0.70;0.70;;;24.70;99.90;;;;;;5030819;28;20226;-89
2021/08/07 11:23:02;;;;;;;1.65;1.10;;;25.20;99.90;;;;;;5017054;28;20190;-87
2021/08/07 11:25:49;;;;;;;0.80;0.63;;;25.50;99.90;;;;;;5018036;28;20201;-88
2021/08/07 11:28:18;;;;;;;2.95;0.73;;;25.40;99.90;;;;;;5015843;28;20661;-88
2021/08/07 11:30:44;;;;;;;2.35;1.20;;;25.20;99.90;;;;;;5016614;28;20216;-89
2021/08/07 11:33:10;;;;;;;1.98;1.17;;;25.30;99.90;;;;;;4999669;28;20226;-88
2021/08/07 11:35:39;;;;;;;3.90;1.02;;;25.20;99.90;;;;;;5035515;28;21123;-89
2021/08/07 11:38:13;;;;;;;3.95;1.00;;;24.60;99.90;;;;;;5016498;28;20295;-87
2021/08/07 11:40:41;;;;;;;2.30;0.93;;;24.50;99.90;;;;;;5016845;28;20195;-88
2021/08/07 11:43:19;;;;;;;0.98;0.82;;;24.50;99.90;;;;;;5031010;28;20219;-87
2021/08/07 11:45:45;;;;;;;2.33;0.90;;;24.90;99.90;;;;;;5017458;28;20222;-88
2021/08/07 11:48:24;;;;;;;1.30;1.20;;;24.80;99.90;;;;;;5018091;28;20317;-87
2021/08/07 11:50:51;;;;;;;1.35;0.93;;;24.50;99.90;;;;;;5017143;28;20319;-86
2021/08/07 11:53:21;;;;;;;2.05;1.08;;;24.60;99.90;;;;;;5013712;28;20324;-88
2021/08/07 11:56:17;;;;;;;0.98;0.82;;;24.30;99.90;;;;;;5013303;28;20186;-87
2021/08/07 11:58:53;;;;;;;1.55;1.10;;;23.70;99.90;;;;;;5015317;28;20217;-89
2021/08/07 12:01:20;;;;;;;1.85;0.90;;;23.60;99.90;;;;;;5017669;28;20221;-90
2021/08/07 12:03:47;;;;;;;3.60;1.35;;;22.90;99.90;;;;;;5017192;28;20236;-89
2021/08/07 12:06:15;;;;;;;2.30;1.20;;;22.50;99.90;;;;;;5018294;28;20220;-89
2021/08/07 12:08:42;;;;;;;2.28;1.30;;;22.40;99.90;;;;;;5031816;28;20237;-89
2021/08/07 12:11:10;;;;;;;1.25;1.15;;;22.20;99.90;;;;;;4989668;28;20225;-89
2021/08/07 12:13:41;;;;;;;4.30;1.42;;;22.30;99.90;;;;;;5025005;28;20191;-88
2021/08/07 12:16:19;;;;;;;4.25;1.13;;;22.10;99.90;;;;;;5013728;28;20241;-91
2021/08/07 12:18:47;;;;;;;3.47;1.88;;;21.80;99.90;;;;;;5013050;28;20320;-89
2021/08/07 12:21:24;;;;;;;3.53;1.00;;;21.40;99.90;;;;;;5024013;28;20363;-89
2021/08/07 12:23:57;;;;;;;3.22;0.77;;;21.80;99.90;;;;;;5026785;28;20308;-91
2021/08/07 12:26:25;;;;;;;4.38;0.90;;;22.20;99.90;;;;;;5013657;28;20245;-90
2021/08/07 12:29:00;;;;;;;2.10;0.97;;;22.60;99.90;;;;;;4992953;28;20199;-89
2021/08/07 12:31:49;;;;;;;4.90;1.00;;;22.70;99.90;;;;;;5020184;28;20218;-88
2021/08/07 12:34:23;;;;;;;2.05;1.00;;;23.10;99.90;;;;;;5012166;28;20237;-88
2021/08/07 12:36:59;;;;;;;1.73;0.93;;;23.20;99.90;;;;;;5012621;28;20226;-85
2021/08/07 12:39:27;;;;;;;2.85;1.20;;;23.30;99.90;;;;;;5010679;28;20610;-86
2021/08/07 12:41:54;;;;;;;1.10;1.00;;;23.00;99.90;;;;;;5018187;28;20971;-89
2021/08/07 12:44:28;;;;;;;3.03;0.85;;;22.60;99.90;;;;;;5010359;28;20226;-90
2021/08/07 12:46:56;;;;;;;3.45;1.35;;;22.90;99.90;;;;;;5014948;28;20185;-89
2021/08/07 12:49:43;;;;;;;3.25;1.00;;;23.10;99.90;;;;;;5012293;28;20230;-89
2021/08/07 12:52:16;;;;;;;1.20;1.10;;;24.00;99.90;;;;;;5022822;28;20219;-89
2021/08/07 12:54:45;;;;;;;1.48;1.00;;;24.50;99.90;;;;;;5019285;28;20249;-88
2021/08/07 12:57:24;;;;;;;2.45;1.13;;;24.00;99.90;;;;;;5010277;28;20309;-90
2021/08/07 12:59:52;;;;;;;0.80;0.80;;;24.30;99.90;;;;;;4995707;28;20253;-90